Time;durP1;ratioP1;P1;durP2;ratioP2;P2;SDS_P1;SDS_P2;PMS_P1;PMS_P2;Temp;Humidity;BMP_temperature;BMP_pressure;BME280_temperature;BME280_humidity;BME280_pressure;Samples;Min_cycle;Max_cycle;Signal;HPM_P1;HPM_P2
2021/01/21 00:00:42;;;;;;;5.35;1.90;;;;;;;;;;5039796;28;20198;-89
2021/01/21 00:03:09;;;;;;;1.77;1.63;;;;;;;;;;5039505;28;20202;-87
2021/01/21 00:05:36;;;;;;;3.08;2.70;;;;;;;;;;5039263;28;20186;-90
2021/01/21 00:08:04;;;;;;;2.72;1.83;;;;;;;;;;5039026;28;20210;-91
2021/01/21 00:10:31;;;;;;;1.83;1.50;;;;;;;;;;5039395;28;20209;-88
2021/01/21 00:12:58;;;;;;;1.60;1.50;;;;;;;;;;5038852;28;20214;-89
2021/01/21 00:15:25;;;;;;;3.95;2.00;;;;;;;;;;5038286;28;20278;-89
2021/01/21 00:17:53;;;;;;;2.10;1.55;;;;;;;;;;5039597;28;20190;-89
2021/01/21 00:20:20;;;;;;;2.40;2.20;;;;;;;;;;5005449;28;20571;-89
2021/01/21 00:22:47;;;;;;;2.17;1.40;;;;;;;;;;5038928;28;20577;-89
2021/01/21 00:25:14;;;;;;;3.50;2.13;;;;;;;;;;5039450;28;20187;-89
2021/01/21 00:27:41;;;;;;;1.85;1.50;;;;;;;;;;5039629;28;20536;-88
2021/01/21 00:30:10;;;;;;;2.47;1.70;;;;;;;;;;5039153;28;20205;-89
2021/01/21 00:32:37;;;;;;;2.92;1.75;;;;;;;;;;5039506;28;20199;-88
2021/01/21 00:35:07;;;;;;;2.42;1.50;;;;;;;;;;5039289;28;20280;-88
2021/01/21 00:37:34;;;;;;;1.73;1.50;;;;;;;;;;5038508;28;20197;-88
2021/01/21 00:40:01;;;;;;;1.73;1.45;;;;;;;;;;5038793;28;20210;-89
2021/01/21 00:42:28;;;;;;;1.90;1.80;;;;;;;;;;5038554;28;20277;-89
2021/01/21 00:44:55;;;;;;;4.03;1.30;;;;;;;;;;5039614;28;20264;-88
2021/01/21 00:47:28;;;;;;;2.03;1.38;;;;;;;;;;5036850;28;20209;-88
2021/01/21 00:49:55;;;;;;;1.50;1.30;;;;;;;;;;5037932;28;20212;-90
2021/01/21 00:52:23;;;;;;;3.17;1.40;;;;;;;;;;5038547;28;20476;-89
2021/01/21 00:54:50;;;;;;;1.40;1.30;;;;;;;;;;5038942;28;20203;-89
2021/01/21 00:57:17;;;;;;;1.50;1.40;;;;;;;;;;5038915;28;20293;-89
2021/01/21 00:59:44;;;;;;;1.00;1.00;;;;;;;;;;5038291;28;20232;-89
2021/01/21 01:02:12;;;;;;;1.98;1.60;;;;;;;;;;5038786;28;20575;-89
2021/01/21 01:04:39;;;;;;;3.05;1.42;;;;;;;;;;5038022;28;20636;-88
2021/01/21 01:07:06;;;;;;;2.90;1.70;;;;;;;;;;5039191;28;20255;-89
2021/01/21 01:09:34;;;;;;;3.58;1.40;;;;;;;;;;5038805;28;20205;-89
2021/01/21 01:12:00;;;;;;;1.02;1.02;;;;;;;;;;5038061;28;20179;-89
2021/01/21 01:14:28;;;;;;;2.67;1.70;;;;;;;;;;5038627;28;20536;-89
2021/01/21 01:16:55;;;;;;;1.63;1.45;;;;;;;;;;5038311;28;20291;-89
2021/01/21 01:19:22;;;;;;;1.33;1.23;;;;;;;;;;5038102;28;20477;-87
2021/01/21 01:21:48;;;;;;;1.55;1.35;;;;;;;;;;5038711;28;20205;-87
2021/01/21 01:24:15;;;;;;;4.13;1.80;;;;;;;;;;5038669;28;20205;-88
2021/01/21 01:26:45;;;;;;;1.77;1.13;;;;;;;;;;5039419;28;20206;-88
2021/01/21 01:29:12;;;;;;;2.13;1.40;;;;;;;;;;5042137;28;20198;-88
2021/01/21 01:31:39;;;;;;;3.90;1.83;;;;;;;;;;5042578;28;20272;-88
2021/01/21 01:34:06;;;;;;;1.50;1.40;;;;;;;;;;5042146;28;20578;-89
2021/01/21 01:36:33;;;;;;;1.48;1.38;;;;;;;;;;5043023;28;20221;-89
2021/01/21 01:39:00;;;;;;;2.90;1.20;;;;;;;;;;5042062;28;20489;-88
2021/01/21 01:41:28;;;;;;;1.85;1.40;;;;;;;;;;5042241;28;20511;-91
2021/01/21 01:43:56;;;;;;;2.00;1.40;;;;;;;;;;5041319;28;20256;-89
2021/01/21 01:46:24;;;;;;;3.13;1.30;;;;;;;;;;5041685;28;20587;-90
2021/01/21 01:48:51;;;;;;;1.23;1.10;;;;;;;;;;5042337;28;20511;-90
2021/01/21 01:51:18;;;;;;;1.55;1.42;;;;;;;;;;5042434;28;20216;-89
2021/01/21 01:53:45;;;;;;;2.53;1.40;;;;;;;;;;5041696;28;20252;-90
2021/01/21 01:56:12;;;;;;;1.75;1.40;;;;;;;;;;5041953;28;20552;-89
2021/01/21 01:58:39;;;;;;;3.22;1.25;;;;;;;;;;5041913;28;20221;-89
2021/01/21 02:01:07;;;;;;;2.20;1.33;;;;;;;;;;5042063;28;20237;-89
2021/01/21 02:03:34;;;;;;;2.17;1.98;;;;;;;;;;5042351;28;20203;-89
2021/01/21 02:06:01;;;;;;;1.45;1.35;;;;;;;;;;5041985;28;20206;-88
2021/01/21 02:08:28;;;;;;;1.35;1.15;;;;;;;;;;5041601;28;20190;-89
2021/01/21 02:11:00;;;;;;;2.72;1.48;;;;;;;;;;5041903;28;20255;-88
2021/01/21 02:13:44;;;;;;;1.30;1.20;;;;;;;;;;5041097;28;20211;-89
2021/01/21 02:16:28;;;;;;;2.00;1.40;;;;;;;;;;5041897;28;20200;-89
2021/01/21 02:19:38;;;;;;;1.80;1.40;;;;;;;;;;5041731;28;20208;-90
2021/01/21 02:22:42;;;;;;;3.50;1.77;;;;;;;;;;5026883;28;20216;-89
2021/01/21 02:25:13;;;;;;;3.45;1.48;;;;;;;;;;5041664;28;20532;-88
2021/01/21 02:28:33;;;;;;;1.20;1.10;;;;;;;;;;5041170;28;20193;-87
2021/01/21 02:31:05;;;;;;;2.00;1.13;;;;;;;;;;5041572;28;20194;-87
2021/01/21 02:33:57;;;;;;;6.15;1.55;;;;;;;;;;5041305;28;20202;-89
2021/01/21 02:36:32;;;;;;;3.38;1.40;;;;;;;;;;5022186;28;20210;-89
2021/01/21 02:39:00;;;;;;;2.10;1.30;;;;;;;;;;5040145;28;20198;-88
2021/01/21 02:41:28;;;;;;;1.20;1.10;;;;;;;;;;5041073;28;20260;-88
2021/01/21 02:43:55;;;;;;;2.35;1.73;;;;;;;;;;5040927;28;20234;-88
2021/01/21 02:46:23;;;;;;;1.98;1.48;;;;;;;;;;5041267;28;20516;-89
2021/01/21 02:48:52;;;;;;;1.50;1.40;;;;;;;;;;5037698;28;20288;-89
2021/01/21 02:51:37;;;;;;;1.73;1.38;;;;;;;;;;5027954;28;20206;-89
2021/01/21 02:54:33;;;;;;;3.00;1.20;;;;;;;;;;5032630;28;20206;-88
2021/01/21 02:57:05;;;;;;;1.23;1.10;;;;;;;;;;4961389;29;20212;-88
2021/01/21 02:59:40;;;;;;;1.73;1.63;;;;;;;;;;4961111;28;20239;-90
2021/01/21 03:02:10;;;;;;;1.25;1.15;;;;;;;;;;4961487;28;20208;-89
2021/01/21 03:04:39;;;;;;;1.42;1.27;;;;;;;;;;4961585;29;20201;-90
2021/01/21 03:07:09;;;;;;;2.28;1.48;;;;;;;;;;4961587;28;20201;-89
2021/01/21 03:09:36;;;;;;;1.38;1.27;;;;;;;;;;4961125;29;20211;-89
2021/01/21 03:12:17;;;;;;;1.92;1.40;;;;;;;;;;4961164;28;20224;-90
2021/01/21 03:14:44;;;;;;;1.20;1.10;;;;;;;;;;4961208;28;20204;-89
2021/01/21 03:17:11;;;;;;;4.97;2.20;;;;;;;;;;4960996;28;20209;-88
2021/01/21 03:19:38;;;;;;;1.42;1.10;;;;;;;;;;4961443;29;20238;-88
2021/01/21 03:22:06;;;;;;;4.22;2.70;;;;;;;;;;4960909;29;20201;-89
2021/01/21 03:24:33;;;;;;;2.67;1.20;;;;;;;;;;4960928;28;20197;-88
2021/01/21 03:27:00;;;;;;;2.30;1.70;;;;;;;;;;4960777;29;20209;-88
2021/01/21 03:29:28;;;;;;;1.83;1.30;;;;;;;;;;4961320;28;20250;-88
2021/01/21 03:31:55;;;;;;;3.70;1.48;;;;;;;;;;4960261;29;20185;-89
2021/01/21 03:34:22;;;;;;;1.40;1.30;;;;;;;;;;5006580;28;20228;-89
2021/01/21 03:36:50;;;;;;;2.75;1.38;;;;;;;;;;5040594;28;20208;-89
2021/01/21 03:39:18;;;;;;;5.32;1.30;;;;;;;;;;5040056;28;20212;-90
2021/01/21 03:41:45;;;;;;;1.92;1.52;;;;;;;;;;5040284;28;20226;-89
2021/01/21 03:44:12;;;;;;;1.55;1.30;;;;;;;;;;5000828;28;20220;-90
2021/01/21 03:46:39;;;;;;;2.15;1.30;;;;;;;;;;5001049;28;20195;-90
2021/01/21 03:49:06;;;;;;;1.50;1.35;;;;;;;;;;5000976;28;20290;-91
2021/01/21 03:51:33;;;;;;;3.63;1.60;;;;;;;;;;5000536;28;20204;-85
2021/01/21 03:54:00;;;;;;;2.03;1.40;;;;;;;;;;5000612;28;20286;-89
2021/01/21 03:56:28;;;;;;;3.25;1.40;;;;;;;;;;4999901;28;20195;-89
2021/01/21 03:58:55;;;;;;;2.20;1.27;;;;;;;;;;4999960;28;20569;-89
2021/01/21 04:01:22;;;;;;;2.60;1.73;;;;;;;;;;5000020;28;20550;-89
2021/01/21 04:03:50;;;;;;;1.73;1.17;;;;;;;;;;5000609;28;20214;-90
2021/01/21 04:06:26;;;;;;;2.55;1.63;;;;;;;;;;5000694;28;20585;-87
2021/01/21 04:08:53;;;;;;;2.60;1.38;;;;;;;;;;4999708;28;20238;-91
2021/01/21 04:11:20;;;;;;;1.40;1.20;;;;;;;;;;4999935;28;20279;-90
2021/01/21 04:13:48;;;;;;;3.53;1.20;;;;;;;;;;4999760;28;20234;-89
2021/01/21 04:16:15;;;;;;;1.17;1.10;;;;;;;;;;5000078;28;20204;-90
2021/01/21 04:18:42;;;;;;;2.55;1.88;;;;;;;;;;5000568;28;20192;-90
2021/01/21 04:21:09;;;;;;;1.27;1.17;;;;;;;;;;5000342;28;20239;-89
2021/01/21 04:23:36;;;;;;;1.63;1.17;;;;;;;;;;4999452;28;20180;-90
2021/01/21 04:26:03;;;;;;;1.60;1.42;;;;;;;;;;5000189;28;20530;-90
2021/01/21 04:28:30;;;;;;;1.10;1.05;;;;;;;;;;4999360;28;20184;-90
2021/01/21 04:30:58;;;;;;;2.90;1.40;;;;;;;;;;5000027;28;20612;-88
2021/01/21 04:33:25;;;;;;;2.08;1.17;;;;;;;;;;4999696;28;20204;-90
2021/01/21 04:35:52;;;;;;;1.25;1.10;;;;;;;;;;5000197;28;20215;-90
2021/01/21 04:38:19;;;;;;;2.35;1.40;;;;;;;;;;4999536;28;20192;-89
2021/01/21 04:40:46;;;;;;;2.80;1.55;;;;;;;;;;4999436;28;20207;-90
2021/01/21 04:43:13;;;;;;;1.75;1.25;;;;;;;;;;5022792;28;20238;-90
2021/01/21 04:45:40;;;;;;;4.18;2.08;;;;;;;;;;5038605;28;20652;-88
2021/01/21 04:48:09;;;;;;;0.85;0.85;;;;;;;;;;5039405;28;20209;-88
2021/01/21 04:50:37;;;;;;;1.00;0.90;;;;;;;;;;5039326;28;20225;-89
2021/01/21 04:53:06;;;;;;;1.75;1.17;;;;;;;;;;5039284;28;20199;-89
2021/01/21 04:55:39;;;;;;;3.78;1.35;;;;;;;;;;5039009;28;20198;-90
2021/01/21 04:58:13;;;;;;;1.27;1.05;;;;;;;;;;5039127;28;20206;-90
2021/01/21 05:00:41;;;;;;;4.60;1.73;;;;;;;;;;5038747;28;20222;-87
2021/01/21 05:03:10;;;;;;;1.33;1.23;;;;;;;;;;5038426;28;20508;-88
2021/01/21 05:05:37;;;;;;;1.40;1.30;;;;;;;;;;5038910;28;20199;-90
2021/01/21 05:08:05;;;;;;;1.48;1.38;;;;;;;;;;5038883;28;20209;-88
2021/01/21 05:10:32;;;;;;;2.70;1.20;;;;;;;;;;5039063;28;20212;-89
2021/01/21 05:12:59;;;;;;;1.55;1.40;;;;;;;;;;5038238;28;20230;-87
2021/01/21 05:15:26;;;;;;;1.00;1.00;;;;;;;;;;5038922;28;20277;-90
2021/01/21 05:17:54;;;;;;;2.15;1.20;;;;;;;;;;5038106;28;20189;-90
2021/01/21 05:20:24;;;;;;;1.05;0.98;;;;;;;;;;5039227;28;20226;-90
2021/01/21 05:22:57;;;;;;;0.93;0.93;;;;;;;;;;5037951;28;20206;-90
2021/01/21 05:25:25;;;;;;;2.35;1.60;;;;;;;;;;5038974;28;20203;-88
2021/01/21 05:27:53;;;;;;;3.20;1.50;;;;;;;;;;5038447;28;20206;-88
2021/01/21 05:30:21;;;;;;;2.58;1.23;;;;;;;;;;5039020;28;20205;-89
2021/01/21 05:32:48;;;;;;;1.10;1.00;;;;;;;;;;5038715;28;20202;-90
2021/01/21 05:35:15;;;;;;;1.40;1.30;;;;;;;;;;5038252;28;20194;-88
2021/01/21 05:37:45;;;;;;;1.58;1.00;;;;;;;;;;5038136;28;20198;-90
2021/01/21 05:40:13;;;;;;;1.48;1.38;;;;;;;;;;5038561;28;20477;-88
2021/01/21 05:42:40;;;;;;;1.30;1.20;;;;;;;;;;5037806;28;20234;-89
2021/01/21 05:45:09;;;;;;;1.40;1.30;;;;;;;;;;4989031;28;20211;-90
2021/01/21 05:47:37;;;;;;;1.23;1.13;;;;;;;;;;5038834;28;20199;-85
2021/01/21 05:50:06;;;;;;;1.52;1.35;;;;;;;;;;5037844;28;20187;-90
2021/01/21 05:52:33;;;;;;;3.00;2.33;;;;;;;;;;5038820;28;20524;-85
2021/01/21 05:55:01;;;;;;;1.52;1.33;;;;;;;;;;5038826;28;20183;-90
2021/01/21 05:57:28;;;;;;;1.00;0.98;;;;;;;;;;5037750;28;20458;-87
2021/01/21 05:59:55;;;;;;;1.50;1.30;;;;;;;;;;5037815;28;20194;-89
2021/01/21 06:02:22;;;;;;;1.83;1.30;;;;;;;;;;5037886;28;20213;-88
2021/01/21 06:04:49;;;;;;;1.35;1.25;;;;;;;;;;5038027;28;20206;-89
2021/01/21 06:07:22;;;;;;;4.97;1.85;;;;;;;;;;5038207;28;20525;-89
2021/01/21 06:09:49;;;;;;;1.55;1.30;;;;;;;;;;5037676;28;20187;-87
2021/01/21 06:12:17;;;;;;;2.38;1.45;;;;;;;;;;5038081;28;20245;-88
2021/01/21 06:14:47;;;;;;;2.95;1.98;;;;;;;;;;5039367;28;20201;-87
2021/01/21 06:17:14;;;;;;;2.03;1.38;;;;;;;;;;5041776;28;20202;-89
2021/01/21 06:19:41;;;;;;;1.40;1.30;;;;;;;;;;5041894;28;20194;-87
2021/01/21 06:22:10;;;;;;;1.77;1.50;;;;;;;;;;5041108;28;20261;-87
2021/01/21 06:24:44;;;;;;;1.38;1.33;;;;;;;;;;5041196;28;20191;-87
2021/01/21 06:27:11;;;;;;;2.72;1.42;;;;;;;;;;5040799;28;20198;-87
2021/01/21 06:29:39;;;;;;;0.95;0.95;;;;;;;;;;5040875;28;20179;-88
2021/01/21 06:32:08;;;;;;;1.88;1.20;;;;;;;;;;5040681;28;20182;-87
2021/01/21 06:34:39;;;;;;;1.23;1.10;;;;;;;;;;5041495;28;20222;-88
2021/01/21 06:37:12;;;;;;;2.17;1.35;;;;;;;;;;5040950;28;20198;-88
2021/01/21 06:39:47;;;;;;;1.48;1.38;;;;;;;;;;5040957;28;20519;-87
2021/01/21 06:42:27;;;;;;;1.35;1.10;;;;;;;;;;5040163;28;20237;-88
2021/01/21 06:44:56;;;;;;;1.58;1.48;;;;;;;;;;5041113;28;20186;-87
2021/01/21 06:47:23;;;;;;;2.10;1.30;;;;;;;;;;5040479;28;20224;-87
2021/01/21 06:49:55;;;;;;;1.10;1.00;;;;;;;;;;5040824;28;20193;-88
2021/01/21 06:52:23;;;;;;;2.47;1.23;;;;;;;;;;5040655;28;20187;-88
2021/01/21 06:54:50;;;;;;;1.38;1.27;;;;;;;;;;5040525;28;20571;-88
2021/01/21 06:57:42;;;;;;;1.40;1.23;;;;;;;;;;5040625;28;20197;-86
2021/01/21 07:00:13;;;;;;;1.63;1.40;;;;;;;;;;5040528;28;20190;-88
2021/01/21 07:02:46;;;;;;;1.73;1.20;;;;;;;;;;5040369;28;20210;-88
2021/01/21 07:05:15;;;;;;;1.63;1.52;;;;;;;;;;5040647;28;20252;-89
2021/01/21 07:08:05;;;;;;;1.58;1.27;;;;;;;;;;5040404;28;20244;-89
2021/01/21 07:10:41;;;;;;;1.23;1.08;;;;;;;;;;5040311;28;20456;-88
2021/01/21 07:13:10;;;;;;;2.22;1.23;;;;;;;;;;5040151;28;20325;-89
2021/01/21 07:15:49;;;;;;;0.95;0.95;;;;;;;;;;5040154;28;20524;-87
2021/01/21 07:18:19;;;;;;;1.48;1.38;;;;;;;;;;5040135;28;20551;-88
2021/01/21 07:21:16;;;;;;;3.08;1.30;;;;;;;;;;5040151;28;20196;-88
2021/01/21 07:23:48;;;;;;;1.40;1.27;;;;;;;;;;5035237;28;20198;-89
2021/01/21 07:26:34;;;;;;;1.65;1.23;;;;;;;;;;5039484;28;20179;-88
2021/01/21 07:29:12;;;;;;;1.90;1.35;;;;;;;;;;5039911;28;20469;-90
2021/01/21 07:32:06;;;;;;;1.23;1.20;;;;;;;;;;5039685;28;20183;-90
2021/01/21 07:34:47;;;;;;;1.80;1.30;;;;;;;;;;5039951;28;20190;-88
2021/01/21 07:37:26;;;;;;;1.63;1.40;;;;;;;;;;5039553;28;20186;-89
2021/01/21 07:39:59;;;;;;;3.08;1.95;;;;;;;;;;5039774;28;20178;-88
2021/01/21 07:42:53;;;;;;;1.08;0.98;;;;;;;;;;5039275;28;20287;-91
2021/01/21 07:45:38;;;;;;;1.30;1.20;;;;;;;;;;5039669;28;20269;-91
2021/01/21 07:48:24;;;;;;;0.90;0.90;;;;;;;;;;5039761;28;20528;-89
2021/01/21 07:50:52;;;;;;;1.25;1.15;;;;;;;;;;5040217;28;20500;-89
2021/01/21 07:53:25;;;;;;;2.17;1.10;;;;;;;;;;5039224;28;20445;-88
2021/01/21 07:55:53;;;;;;;1.30;1.20;;;;;;;;;;5040260;28;20179;-88
2021/01/21 07:58:30;;;;;;;1.35;1.20;;;;;;;;;;5039871;28;20206;-87
2021/01/21 08:01:00;;;;;;;1.38;1.27;;;;;;;;;;5039370;28;20191;-87
2021/01/21 08:03:33;;;;;;;1.38;1.15;;;;;;;;;;5040044;28;20532;-87
2021/01/21 08:06:08;;;;;;;1.27;1.00;;;;;;;;;;5040092;28;20210;-89
2021/01/21 08:08:35;;;;;;;1.60;1.50;;;;;;;;;;4989438;28;20285;-90
2021/01/21 08:11:05;;;;;;;2.85;1.27;;;;;;;;;;5039225;28;20547;-88
2021/01/21 08:13:33;;;;;;;1.30;1.23;;;;;;;;;;5039040;28;20230;-88
2021/01/21 08:16:00;;;;;;;1.45;1.20;;;;;;;;;;5038912;28;20285;-89
2021/01/21 08:18:27;;;;;;;1.30;1.17;;;;;;;;;;5039402;28;20182;-88
2021/01/21 08:20:54;;;;;;;1.30;1.20;;;;;;;;;;5039047;28;20187;-89
2021/01/21 08:23:22;;;;;;;1.30;1.20;;;;;;;;;;5038626;28;20298;-90
2021/01/21 08:25:51;;;;;;;2.40;1.15;;;;;;;;;;5038778;28;20205;-89
2021/01/21 08:28:19;;;;;;;3.22;1.35;;;;;;;;;;5038758;28;20578;-88
2021/01/21 08:30:48;;;;;;;1.52;1.42;;;;;;;;;;5038612;28;20205;-89
2021/01/21 08:33:17;;;;;;;1.33;1.23;;;;;;;;;;5039320;28;20209;-90
2021/01/21 08:35:50;;;;;;;2.80;1.55;;;;;;;;;;5038995;28;20193;-89
2021/01/21 08:38:21;;;;;;;2.15;1.35;;;;;;;;;;5038675;28;20263;-89
2021/01/21 08:40:49;;;;;;;4.10;2.53;;;;;;;;;;5038806;28;20193;-89
2021/01/21 08:43:16;;;;;;;0.75;0.75;;;;;;;;;;5038311;28;20233;-89
2021/01/21 08:45:43;;;;;;;0.80;0.80;;;;;;;;;;5039734;28;20190;-89
2021/01/21 08:48:11;;;;;;;1.42;1.27;;;;;;;;;;5039329;28;20208;-88
2021/01/21 08:50:40;;;;;;;0.50;0.50;;;;;;;;;;5038332;28;20241;-89
2021/01/21 08:53:09;;;;;;;0.50;0.50;;;;;;;;;;5039234;28;20194;-86
2021/01/21 08:55:43;;;;;;;0.50;0.50;;;;;;;;;;5038475;28;20191;-88
2021/01/21 08:58:12;;;;;;;0.60;0.60;;;;;;;;;;5039146;28;20198;-89
2021/01/21 09:00:55;;;;;;;0.52;0.52;;;;;;;;;;4988757;28;20470;-87
2021/01/21 09:03:38;;;;;;;0.60;0.60;;;;;;;;;;5038077;28;20225;-87
2021/01/21 09:06:07;;;;;;;0.50;0.50;;;;;;;;;;5039103;28;20207;-88
2021/01/21 09:08:46;;;;;;;0.57;0.57;;;;;;;;;;5039078;28;20190;-87
2021/01/21 09:11:29;;;;;;;1.08;0.50;;;;;;;;;;5038979;28;20228;-88
2021/01/21 09:13:56;;;;;;;1.55;1.45;;;;;;;;;;5038609;28;20302;-88
2021/01/21 09:16:42;;;;;;;0.50;0.50;;;;;;;;;;5038745;28;20217;-88
2021/01/21 09:19:10;;;;;;;0.38;0.38;;;;;;;;;;5038537;28;20178;-86
2021/01/21 09:21:37;;;;;;;0.30;0.30;;;;;;;;;;5038563;28;20272;-87
2021/01/21 09:24:10;;;;;;;0.40;0.40;;;;;;;;;;5038404;28;20197;-88
2021/01/21 09:26:38;;;;;;;0.50;0.50;;;;;;;;;;5037921;28;20179;-86
2021/01/21 09:29:05;;;;;;;0.40;0.40;;;;;;;;;;5038215;28;20194;-88
2021/01/21 09:31:33;;;;;;;0.57;0.50;;;;;;;;;;5038207;28;20213;-87
2021/01/21 09:34:00;;;;;;;0.30;0.30;;;;;;;;;;5037729;28;20183;-87
2021/01/21 09:36:29;;;;;;;2.17;0.50;;;;;;;;;;5038731;28;20202;-87
2021/01/21 09:38:56;;;;;;;0.28;0.28;;;;;;;;;;5038164;28;20548;-85
2021/01/21 09:41:24;;;;;;;0.22;0.22;;;;;;;;;;5038028;28;20248;-87
2021/01/21 09:43:52;;;;;;;0.30;0.30;;;;;;;;;;5037541;28;20226;-86
2021/01/21 09:46:19;;;;;;;0.40;0.40;;;;;;;;;;5037697;28;20183;-87
2021/01/21 09:48:45;;;;;;;0.40;0.40;;;;;;;;;;5040950;28;20278;-86
2021/01/21 09:51:12;;;;;;;2.47;1.95;;;;;;;;;;5042444;28;20195;-87
2021/01/21 09:53:39;;;;;;;0.30;0.30;;;;;;;;;;5041911;28;20206;-87
2021/01/21 09:56:06;;;;;;;0.63;0.63;;;;;;;;;;5041678;28;20454;-87
2021/01/21 09:58:33;;;;;;;0.40;0.40;;;;;;;;;;5042504;28;20213;-86
2021/01/21 10:01:01;;;;;;;0.50;0.50;;;;;;;;;;5042515;28;20289;-87
2021/01/21 10:03:28;;;;;;;0.20;0.20;;;;;;;;;;5041209;28;20202;-87
2021/01/21 10:05:55;;;;;;;0.30;0.30;;;;;;;;;;5041437;28;20203;-87
2021/01/21 10:08:22;;;;;;;0.40;0.40;;;;;;;;;;5041612;28;20195;-89
2021/01/21 10:10:49;;;;;;;0.30;0.30;;;;;;;;;;5041865;28;20195;-87
2021/01/21 10:13:16;;;;;;;0.40;0.40;;;;;;;;;;5040906;28;20611;-87
2021/01/21 10:15:43;;;;;;;0.38;0.38;;;;;;;;;;5041026;28;20189;-88
2021/01/21 10:18:11;;;;;;;0.30;0.30;;;;;;;;;;5041336;28;20196;-87
2021/01/21 10:20:37;;;;;;;0.20;0.20;;;;;;;;;;5041636;28;20321;-87
2021/01/21 10:23:04;;;;;;;0.40;0.40;;;;;;;;;;5041366;28;20237;-85
2021/01/21 10:25:31;;;;;;;0.40;0.40;;;;;;;;;;5041290;28;20209;-85
2021/01/21 10:27:58;;;;;;;0.52;0.52;;;;;;;;;;5041289;28;20183;-86
2021/01/21 10:30:26;;;;;;;0.50;0.50;;;;;;;;;;5040942;28;20186;-85
2021/01/21 10:32:53;;;;;;;0.30;0.30;;;;;;;;;;5041595;28;20202;-85
2021/01/21 10:35:22;;;;;;;0.57;0.57;;;;;;;;;;5040319;28;20594;-85
2021/01/21 10:37:49;;;;;;;0.60;0.60;;;;;;;;;;5040860;28;20197;-86
2021/01/21 10:40:17;;;;;;;1.90;0.40;;;;;;;;;;5040770;28;20197;-85
2021/01/21 10:42:43;;;;;;;0.22;0.22;;;;;;;;;;5006714;28;20261;-86
2021/01/21 10:45:11;;;;;;;0.50;0.50;;;;;;;;;;5040666;28;20253;-85
2021/01/21 10:47:38;;;;;;;0.30;0.30;;;;;;;;;;5040599;28;20202;-86
2021/01/21 10:50:07;;;;;;;0.52;0.50;;;;;;;;;;5040616;28;20179;-85
2021/01/21 10:52:35;;;;;;;0.60;0.50;;;;;;;;;;5039679;28;20202;-87
2021/01/21 10:55:02;;;;;;;0.95;0.50;;;;;;;;;;5038363;28;20240;-86
2021/01/21 10:57:30;;;;;;;0.40;0.40;;;;;;;;;;5040005;28;20208;-86
2021/01/21 10:59:56;;;;;;;0.43;0.43;;;;;;;;;;5040383;28;20201;-86
2021/01/21 11:02:23;;;;;;;0.60;0.60;;;;;;;;;;5039994;28;20556;-85
2021/01/21 11:04:50;;;;;;;0.47;0.47;;;;;;;;;;5040374;28;20179;-86
2021/01/21 11:07:17;;;;;;;1.02;0.65;;;;;;;;;;5040007;28;20202;-86
2021/01/21 11:09:45;;;;;;;0.82;0.82;;;;;;;;;;5040165;28;20191;-86
2021/01/21 11:12:15;;;;;;;0.40;0.38;;;;;;;;;;5040490;28;20201;-86
2021/01/21 11:14:41;;;;;;;2.20;0.65;;;;;;;;;;5040679;28;20187;-86
2021/01/21 11:17:08;;;;;;;0.40;0.40;;;;;;;;;;5040102;28;20175;-87
2021/01/21 11:19:35;;;;;;;0.40;0.40;;;;;;;;;;5039987;28;20186;-85
2021/01/21 11:22:02;;;;;;;0.38;0.38;;;;;;;;;;5039966;28;20183;-85
2021/01/21 11:24:29;;;;;;;0.50;0.50;;;;;;;;;;5039495;28;20213;-86
2021/01/21 11:26:57;;;;;;;0.50;0.50;;;;;;;;;;5039795;28;20195;-85
2021/01/21 11:29:24;;;;;;;0.70;0.40;;;;;;;;;;5039875;28;20195;-86
2021/01/21 11:31:52;;;;;;;0.60;0.60;;;;;;;;;;5040051;28;20470;-86
2021/01/21 11:34:19;;;;;;;0.30;0.30;;;;;;;;;;5039763;28;20183;-86
2021/01/21 11:36:47;;;;;;;0.75;0.75;;;;;;;;;;5039756;28;20197;-86
2021/01/21 11:39:14;;;;;;;0.85;0.38;;;;;;;;;;5040457;28;20261;-86
2021/01/21 11:41:41;;;;;;;0.60;0.60;;;;;;;;;;5040329;28;20224;-87
2021/01/21 11:44:09;;;;;;;0.75;0.40;;;;;;;;;;5039298;28;20226;-86
2021/01/21 11:46:36;;;;;;;0.50;0.45;;;;;;;;;;5039214;28;20224;-86
2021/01/21 11:49:03;;;;;;;0.98;0.45;;;;;;;;;;5039922;28;20317;-86
2021/01/21 11:51:30;;;;;;;0.80;0.80;;;;;;;;;;5039940;28;20252;-86
2021/01/21 11:53:57;;;;;;;0.50;0.50;;;;;;;;;;5038966;28;20227;-87
2021/01/21 11:56:24;;;;;;;0.40;0.40;;;;;;;;;;5039064;28;20190;-86
2021/01/21 11:58:51;;;;;;;0.35;0.35;;;;;;;;;;5039113;28;20190;-87
2021/01/21 12:01:19;;;;;;;0.47;0.47;;;;;;;;;;5039565;28;20185;-86
2021/01/21 12:03:46;;;;;;;0.60;0.60;;;;;;;;;;5038873;28;20202;-86
2021/01/21 12:06:13;;;;;;;0.60;0.60;;;;;;;;;;5039244;28;20194;-87
2021/01/21 12:08:40;;;;;;;0.98;0.75;;;;;;;;;;5039125;28;20194;-87
2021/01/21 12:11:06;;;;;;;0.40;0.40;;;;;;;;;;5038547;28;20202;-86
2021/01/21 12:13:33;;;;;;;1.33;0.40;;;;;;;;;;5038607;28;20224;-86
2021/01/21 12:16:01;;;;;;;1.33;1.15;;;;;;;;;;5039508;28;20195;-86
2021/01/21 12:18:29;;;;;;;2.45;0.70;;;;;;;;;;5038940;28;20185;-86
2021/01/21 12:20:56;;;;;;;0.60;0.60;;;;;;;;;;5039332;28;20212;-85
2021/01/21 12:23:23;;;;;;;0.70;0.43;;;;;;;;;;5038747;28;20233;-86
2021/01/21 12:25:50;;;;;;;0.60;0.60;;;;;;;;;;5038840;28;20202;-86
2021/01/21 12:28:17;;;;;;;1.20;0.70;;;;;;;;;;5039550;28;20187;-86
2021/01/21 12:30:43;;;;;;;0.65;0.60;;;;;;;;;;5038487;28;20183;-86
2021/01/21 12:33:10;;;;;;;1.15;0.75;;;;;;;;;;5038701;28;20191;-86
2021/01/21 12:35:38;;;;;;;0.57;0.57;;;;;;;;;;5038332;28;20197;-86
2021/01/21 12:38:05;;;;;;;1.15;0.57;;;;;;;;;;5038653;28;20524;-87
2021/01/21 12:40:33;;;;;;;0.93;0.93;;;;;;;;;;5038346;28;20561;-86
2021/01/21 12:43:00;;;;;;;0.70;0.70;;;;;;;;;;5038240;28;20218;-86
2021/01/21 12:45:27;;;;;;;0.60;0.60;;;;;;;;;;5038545;28;20229;-85
2021/01/21 12:47:54;;;;;;;0.60;0.60;;;;;;;;;;5038233;28;20190;-86
2021/01/21 12:50:21;;;;;;;0.80;0.80;;;;;;;;;;5037924;28;20509;-86
2021/01/21 12:52:49;;;;;;;0.45;0.45;;;;;;;;;;5038719;28;20240;-85
2021/01/21 12:55:16;;;;;;;0.60;0.60;;;;;;;;;;5038022;28;20241;-85
2021/01/21 12:57:43;;;;;;;0.43;0.43;;;;;;;;;;5038402;28;20553;-85
2021/01/21 13:00:11;;;;;;;0.45;0.45;;;;;;;;;;5037997;28;20559;-85
2021/01/21 13:02:38;;;;;;;0.60;0.60;;;;;;;;;;5038320;28;20248;-86
2021/01/21 13:05:07;;;;;;;0.52;0.52;;;;;;;;;;5037941;28;20599;-86
2021/01/21 13:07:34;;;;;;;0.77;0.47;;;;;;;;;;5035564;28;20205;-85
2021/01/21 13:10:01;;;;;;;0.43;0.43;;;;;;;;;;5037548;28;20205;-86
2021/01/21 13:12:28;;;;;;;0.93;0.60;;;;;;;;;;5037543;28;20219;-85
2021/01/21 13:14:55;;;;;;;0.55;0.55;;;;;;;;;;5037740;28;20206;-84
2021/01/21 13:17:22;;;;;;;1.80;1.50;;;;;;;;;;5038050;28;20198;-86
2021/01/21 13:19:49;;;;;;;1.10;1.00;;;;;;;;;;5037965;28;20566;-88
2021/01/21 13:22:17;;;;;;;0.75;0.70;;;;;;;;;;5037723;28;20201;-86
2021/01/21 13:24:44;;;;;;;0.45;0.45;;;;;;;;;;5041387;28;20221;-84
2021/01/21 13:27:11;;;;;;;1.38;0.95;;;;;;;;;;5041426;28;20202;-85
2021/01/21 13:29:38;;;;;;;0.63;0.63;;;;;;;;;;5041771;28;20186;-85
2021/01/21 13:32:05;;;;;;;0.43;0.43;;;;;;;;;;5042041;28;20281;-86
2021/01/21 13:34:33;;;;;;;0.60;0.60;;;;;;;;;;5039961;28;20569;-88
2021/01/21 13:37:00;;;;;;;0.40;0.40;;;;;;;;;;5038004;28;20682;-87
2021/01/21 13:39:26;;;;;;;0.60;0.60;;;;;;;;;;5041632;28;20189;-87
2021/01/21 13:41:53;;;;;;;0.50;0.50;;;;;;;;;;5040835;28;20259;-87
2021/01/21 13:44:21;;;;;;;0.47;0.47;;;;;;;;;;5102960;22;20201;-85
2021/01/21 13:46:48;;;;;;;0.60;0.60;;;;;;;;;;5049055;28;20214;-86
2021/01/21 13:49:15;;;;;;;0.60;0.60;;;;;;;;;;5060858;28;20202;-85
2021/01/21 13:51:42;;;;;;;0.82;0.77;;;;;;;;;;5060266;28;20271;-85
2021/01/21 13:54:10;;;;;;;0.70;0.70;;;;;;;;;;5060959;28;20198;-86
2021/01/21 13:56:38;;;;;;;0.50;0.50;;;;;;;;;;5061232;28;20194;-88
2021/01/21 13:59:05;;;;;;;0.50;0.45;;;;;;;;;;5061686;28;20589;-87
2021/01/21 14:01:36;;;;;;;1.15;0.70;;;;;;;;;;5061369;28;20182;-87
2021/01/21 14:04:03;;;;;;;0.70;0.70;;;;;;;;;;5059969;28;20230;-87
2021/01/21 14:06:30;;;;;;;0.60;0.60;;;;;;;;;;5049891;28;20194;-87
2021/01/21 14:09:00;;;;;;;1.40;0.60;;;;;;;;;;5041131;28;20210;-85
2021/01/21 14:11:27;;;;;;;0.60;0.60;;;;;;;;;;5041122;28;20213;-87
2021/01/21 14:13:54;;;;;;;0.50;0.50;;;;;;;;;;5041058;28;20256;-86
2021/01/21 14:16:21;;;;;;;0.70;0.70;;;;;;;;;;5040641;28;20697;-87
2021/01/21 14:18:49;;;;;;;0.90;0.80;;;;;;;;;;5040183;28;20594;-86
2021/01/21 14:21:17;;;;;;;0.90;0.70;;;;;;;;;;5041101;28;20202;-86
2021/01/21 14:23:43;;;;;;;0.80;0.80;;;;;;;;;;5041944;28;20205;-89
2021/01/21 14:26:11;;;;;;;1.13;1.00;;;;;;;;;;5060567;28;20186;-90
2021/01/21 14:28:38;;;;;;;0.95;0.75;;;;;;;;;;5058654;28;20190;-85
2021/01/21 14:31:05;;;;;;;1.23;0.70;;;;;;;;;;5060724;28;20190;-87
2021/01/21 14:33:32;;;;;;;1.38;0.77;;;;;;;;;;5060572;28;20181;-86
2021/01/21 14:36:00;;;;;;;1.02;0.73;;;;;;;;;;5049249;28;20472;-88
2021/01/21 14:38:27;;;;;;;0.85;0.70;;;;;;;;;;5060418;28;20491;-87
2021/01/21 14:40:54;;;;;;;0.40;0.40;;;;;;;;;;5059784;28;20197;-87
2021/01/21 14:43:20;;;;;;;1.00;0.60;;;;;;;;;;5059777;28;20252;-87
2021/01/21 14:45:47;;;;;;;0.80;0.80;;;;;;;;;;5054770;28;20225;-87
2021/01/21 14:48:14;;;;;;;0.60;0.60;;;;;;;;;;5059649;28;20200;-87
2021/01/21 14:50:41;;;;;;;0.70;0.70;;;;;;;;;;5042498;28;20559;-88
2021/01/21 14:53:10;;;;;;;2.15;0.80;;;;;;;;;;5040594;28;20194;-89
2021/01/21 14:55:37;;;;;;;1.30;1.20;;;;;;;;;;5040568;28;20198;-88